createdAt,value
2022-11-07T00:00:58.038Z,0.00
2022-11-07T00:01:58.120Z,0.00
2022-11-07T00:02:58.144Z,0.00
2022-11-07T00:03:58.128Z,0.00
2022-11-07T00:04:58.160Z,0.00
2022-11-07T00:05:58.186Z,0.00
2022-11-07T00:06:58.217Z,0.00
2022-11-07T00:07:58.247Z,0.00
2022-11-07T00:08:58.278Z,0.00
2022-11-07T00:09:58.308Z,0.00
2022-11-07T00:10:58.340Z,0.00
2022-11-07T00:11:58.367Z,0.00
2022-11-07T00:12:58.401Z,0.00
2022-11-07T00:13:58.432Z,0.00
2022-11-07T00:14:58.461Z,0.00
2022-11-07T00:15:58.489Z,0.00
2022-11-07T00:16:58.519Z,0.00
2022-11-07T00:17:58.547Z,0.00
2022-11-07T00:18:58.616Z,0.00
2022-11-07T00:19:58.609Z,0.00
2022-11-07T00:20:58.641Z,0.00
2022-11-07T00:21:58.671Z,0.00
2022-11-07T00:22:58.704Z,0.00
2022-11-07T00:24:05.928Z,0.00
2022-11-07T00:26:02.773Z,0.00
2022-11-07T00:27:02.904Z,0.00
2022-11-07T00:29:06.844Z,0.00
2022-11-07T00:30:06.865Z,0.00
2022-11-07T00:32:10.910Z,0.00
2022-11-07T00:33:10.936Z,0.00
2022-11-07T00:35:15.013Z,0.00
2022-11-07T00:36:15.005Z,0.00
2022-11-07T00:38:19.049Z,0.00
2022-11-07T00:39:19.073Z,0.00
2022-11-07T00:41:23.116Z,0.00
2022-11-07T00:42:23.136Z,0.00
2022-11-07T00:44:27.220Z,0.00
2022-11-07T00:45:27.204Z,0.00
2022-11-07T00:47:31.252Z,0.00
2022-11-07T00:48:31.284Z,0.00
2022-11-07T00:50:35.353Z,0.00
2022-11-07T00:51:35.342Z,0.00
2022-11-07T00:53:39.385Z,0.00
2022-11-07T00:54:39.410Z,0.00
2022-11-07T00:56:32.407Z,0.00
2022-11-07T00:57:32.410Z,0.00
2022-11-07T00:59:36.476Z,0.00
2022-11-07T01:00:36.465Z,0.00
2022-11-07T01:02:40.676Z,0.00
2022-11-07T01:03:40.531Z,0.00
2022-11-07T01:05:44.611Z,0.00
2022-11-07T01:06:44.597Z,0.00
2022-11-07T01:08:48.642Z,0.00
2022-11-07T01:09:48.682Z,0.00
2022-11-07T01:11:52.747Z,0.00
2022-11-07T01:12:52.737Z,0.00
2022-11-07T01:14:56.777Z,0.00
2022-11-07T01:15:56.802Z,0.00
2022-11-07T01:18:00.881Z,0.00
2022-11-07T01:19:00.874Z,0.00
2022-11-07T01:21:04.996Z,0.00
2022-11-07T01:22:05.020Z,0.00
2022-11-07T01:24:09.068Z,0.00
2022-11-07T01:25:09.087Z,0.00
2022-11-07T01:27:02.049Z,0.00
2022-11-07T01:28:02.073Z,0.00
2022-11-07T01:30:06.124Z,0.00
2022-11-07T01:31:06.143Z,0.00
2022-11-07T01:33:10.225Z,0.00
2022-11-07T01:34:10.214Z,0.00
2022-11-07T01:36:14.304Z,0.00
2022-11-07T01:37:14.290Z,0.00
2022-11-07T01:39:18.336Z,0.00
2022-11-07T01:40:18.357Z,0.00
2022-11-07T01:42:22.437Z,0.00
2022-11-07T01:43:22.429Z,0.00
2022-11-07T01:45:26.474Z,0.00
2022-11-07T01:46:26.497Z,0.00
2022-11-07T01:48:30.585Z,0.00
2022-11-07T01:49:30.577Z,0.00
2022-11-07T01:51:34.620Z,0.00
2022-11-07T01:52:34.691Z,0.00
2022-11-07T01:54:38.686Z,0.00
2022-11-07T01:55:38.712Z,0.00
2022-11-07T01:57:42.795Z,0.00
2022-11-07T01:58:42.785Z,0.00
2022-11-07T02:00:46.834Z,0.00
2022-11-07T02:01:46.923Z,0.00
2022-11-07T02:03:50.976Z,0.00
2022-11-07T02:04:50.968Z,0.00
2022-11-07T02:06:43.933Z,0.00
2022-11-07T02:07:43.955Z,0.00
2022-11-07T02:09:47.997Z,0.00
2022-11-07T02:10:48.030Z,0.00
2022-11-07T02:12:52.070Z,0.00
2022-11-07T02:13:52.093Z,0.00
2022-11-07T02:15:56.140Z,0.00
2022-11-07T02:16:56.193Z,0.00
2022-11-07T02:19:00.208Z,0.00
2022-11-07T02:20:00.231Z,0.00
2022-11-07T02:22:04.311Z,0.00
2022-11-07T02:23:04.301Z,0.00
2022-11-07T02:25:08.347Z,0.00
2022-11-07T02:26:08.370Z,0.00
2022-11-07T02:28:12.451Z,0.00
2022-11-07T02:29:12.441Z,0.00
2022-11-07T02:31:16.554Z,0.00
2022-11-07T02:32:16.513Z,0.00
2022-11-07T02:34:20.592Z,0.00
2022-11-07T02:35:20.580Z,0.00
2022-11-07T02:37:13.546Z,0.00
2022-11-07T02:38:13.633Z,0.00
2022-11-07T02:40:17.617Z,0.00
2022-11-07T02:41:17.639Z,0.00
2022-11-07T02:43:21.688Z,0.00
2022-11-07T02:44:21.709Z,0.00
2022-11-07T02:46:25.789Z,0.00
2022-11-07T02:47:25.780Z,0.00
2022-11-07T02:49:29.874Z,0.00
2022-11-07T02:50:29.847Z,0.00
2022-11-07T02:52:33.900Z,0.00
2022-11-07T02:53:33.931Z,0.00
2022-11-07T02:55:37.969Z,0.00
2022-11-07T02:56:38.030Z,0.00
2022-11-07T02:58:42.036Z,0.00
2022-11-07T02:59:42.067Z,0.00
2022-11-07T03:01:47.260Z,0.00
2022-11-07T03:02:47.601Z,0.00
2022-11-07T03:04:51.223Z,0.00
2022-11-07T03:05:51.212Z,0.00
2022-11-07T03:07:55.260Z,0.00
2022-11-07T03:08:55.281Z,0.00
2022-11-07T03:10:59.328Z,0.00
2022-11-07T03:11:59.354Z,0.00
2022-11-07T03:14:03.393Z,0.00
2022-11-07T03:15:03.457Z,0.00
2022-11-07T03:16:56.445Z,0.00
2022-11-07T03:17:56.432Z,0.00
2022-11-07T03:20:00.523Z,0.00
2022-11-07T03:21:00.507Z,0.00
2022-11-07T03:23:04.553Z,0.00
2022-11-07T03:24:04.575Z,0.00
2022-11-07T03:26:08.618Z,0.00
2022-11-07T03:27:08.644Z,0.00
2022-11-07T03:29:12.686Z,0.00
2022-11-07T03:30:12.710Z,0.00
2022-11-07T03:32:16.797Z,0.00
2022-11-07T03:33:17.162Z,0.00
2022-11-07T03:35:20.829Z,0.00
2022-11-07T03:36:20.850Z,0.00
2022-11-07T03:38:24.892Z,0.00
2022-11-07T03:39:26.095Z,0.00
2022-11-07T03:41:28.961Z,0.00
2022-11-07T03:42:28.982Z,0.00
2022-11-07T03:44:33.060Z,0.00
2022-11-07T03:45:33.048Z,0.00
2022-11-07T03:47:37.093Z,0.00
2022-11-07T03:48:37.116Z,0.00
2022-11-07T03:50:41.213Z,0.00
2022-11-07T03:51:41.185Z,0.00
2022-11-07T03:53:45.231Z,0.00
2022-11-07T03:54:45.257Z,0.00
2022-11-07T03:56:38.218Z,0.00
2022-11-07T03:57:38.241Z,0.00
2022-11-07T03:59:42.325Z,0.00
2022-11-07T04:00:42.312Z,0.00
2022-11-07T04:02:46.630Z,0.00
2022-11-07T04:03:46.383Z,0.00
2022-11-07T04:05:50.461Z,0.00
2022-11-07T04:06:50.450Z,0.00
2022-11-07T04:08:54.500Z,0.00
2022-11-07T04:09:54.593Z,0.00
2022-11-07T04:11:58.570Z,0.00
2022-11-07T04:12:58.588Z,0.00
2022-11-07T04:15:02.639Z,0.00
2022-11-07T04:16:02.661Z,0.00
2022-11-07T04:18:06.759Z,0.00
2022-11-07T04:19:06.731Z,0.00
2022-11-07T04:21:10.895Z,0.00
2022-11-07T04:22:10.804Z,0.00
2022-11-07T04:24:14.850Z,0.00
2022-11-07T04:25:14.875Z,0.00
2022-11-07T04:27:07.847Z,0.00
2022-11-07T04:28:07.859Z,0.00
2022-11-07T04:30:11.905Z,0.00
2022-11-07T04:31:11.930Z,0.00
2022-11-07T04:33:16.406Z,0.00
2022-11-07T04:34:16.006Z,0.00
2022-11-07T04:36:20.438Z,0.00
2022-11-07T04:37:20.270Z,0.00
2022-11-07T04:39:24.117Z,0.00
2022-11-07T04:40:24.141Z,0.00
2022-11-07T04:44:10.961Z,0.00
2022-11-07T04:45:10.950Z,0.00
2022-11-07T04:47:03.913Z,0.00
2022-11-07T04:48:03.939Z,0.00
2022-11-07T04:50:07.983Z,0.00
2022-11-07T04:51:08.009Z,0.00
2022-11-07T04:53:12.328Z,0.00
2022-11-07T04:54:12.079Z,0.00
2022-11-07T04:56:16.121Z,0.00
2022-11-07T04:57:16.147Z,0.00
2022-11-07T04:59:20.190Z,0.00
2022-11-07T05:00:20.220Z,0.00
2022-11-07T05:02:24.407Z,0.00
2022-11-07T05:03:24.286Z,0.00
2022-11-07T05:05:28.364Z,0.00
2022-11-07T05:06:28.354Z,0.00
2022-11-07T05:08:32.443Z,0.00
2022-11-07T05:09:32.428Z,0.00
2022-11-07T05:11:36.468Z,0.00
2022-11-07T05:12:36.500Z,0.00
2022-11-07T05:14:40.545Z,0.00
2022-11-07T05:15:40.567Z,0.00
2022-11-07T05:17:44.618Z,0.00
2022-11-07T05:18:44.640Z,0.00
2022-11-07T05:20:48.700Z,0.00
2022-11-07T05:21:48.742Z,0.00
2022-11-07T05:23:52.769Z,0.00
2022-11-07T05:24:52.796Z,0.00
2022-11-07T05:26:45.793Z,0.00
2022-11-07T05:27:45.780Z,0.00
2022-11-07T05:29:49.826Z,0.00
2022-11-07T05:30:49.850Z,0.00
2022-11-07T05:32:53.928Z,0.00
2022-11-07T05:33:53.919Z,0.00
2022-11-07T05:35:57.967Z,0.00
2022-11-07T05:36:57.990Z,0.00
2022-11-07T05:39:02.035Z,0.00
2022-11-07T05:40:02.060Z,0.00
2022-11-07T05:42:06.153Z,0.00
2022-11-07T05:43:06.128Z,0.00
2022-11-07T05:45:10.215Z,0.00
2022-11-07T05:46:10.203Z,0.00
2022-11-07T05:48:14.254Z,0.00
2022-11-07T05:49:14.277Z,0.00
2022-11-07T05:51:18.539Z,0.00
2022-11-07T05:52:18.340Z,0.00
2022-11-07T05:54:22.423Z,0.00
2022-11-07T05:55:22.418Z,0.00
2022-11-07T05:57:15.438Z,0.00
2022-11-07T05:58:15.401Z,0.00
2022-11-07T06:00:19.454Z,0.00
2022-11-07T06:01:19.478Z,0.00
2022-11-07T06:03:23.604Z,0.00
2022-11-07T06:04:23.552Z,0.00
2022-11-07T06:06:27.623Z,0.00
2022-11-07T06:07:27.619Z,0.00
2022-11-07T06:09:31.700Z,4.00
2022-11-07T06:10:31.691Z,4.00
2022-11-07T06:12:35.737Z,0.00
2022-11-07T06:13:35.763Z,0.00
2022-11-07T06:15:39.807Z,0.00
2022-11-07T06:16:39.831Z,0.00
2022-11-07T06:18:43.880Z,4.00
2022-11-07T06:19:43.901Z,4.00
2022-11-07T06:21:47.980Z,4.00
2022-11-07T06:22:47.974Z,4.00
2022-11-07T06:24:52.067Z,8.00
2022-11-07T06:25:52.042Z,4.00
2022-11-07T06:27:56.093Z,8.00
2022-11-07T06:28:56.112Z,8.00
2022-11-07T06:31:00.156Z,8.00
2022-11-07T06:32:00.180Z,12.00
2022-11-07T06:34:04.268Z,12.00
2022-11-07T06:35:04.256Z,12.00
2022-11-07T06:37:02.817Z,16.00
2022-11-07T06:37:57.245Z,12.00
2022-11-07T06:40:01.293Z,12.00
2022-11-07T06:41:01.314Z,16.00
2022-11-07T06:43:05.359Z,20.00
2022-11-07T06:44:05.384Z,20.00
2022-11-07T06:46:09.429Z,28.00
2022-11-07T06:47:09.454Z,24.00
2022-11-07T06:49:13.533Z,32.00
2022-11-07T06:50:13.524Z,28.00
2022-11-07T06:52:17.704Z,28.00
2022-11-07T06:53:18.046Z,24.00
2022-11-07T06:55:21.674Z,32.00
2022-11-07T06:56:21.702Z,36.00
2022-11-07T06:58:26.720Z,48.00
2022-11-07T06:59:25.780Z,48.00
2022-11-07T07:01:29.938Z,48.00
2022-11-07T07:02:56.966Z,44.00
2022-11-07T07:04:33.893Z,40.00
2022-11-07T07:05:33.924Z,40.00
2022-11-07T07:07:37.999Z,44.00
2022-11-07T07:08:37.988Z,44.00
2022-11-07T07:10:42.034Z,56.00
2022-11-07T07:11:42.057Z,56.00
2022-11-07T07:13:46.104Z,40.00
2022-11-07T07:14:46.127Z,44.00
2022-11-07T07:16:39.124Z,52.00
2022-11-07T07:17:39.149Z,68.00
2022-11-07T07:19:43.222Z,88.00
2022-11-07T07:20:43.212Z,96.00
2022-11-07T07:22:50.264Z,100.00
2022-11-07T07:23:47.281Z,96.00
2022-11-07T07:25:51.328Z,88.00
2022-11-07T07:26:51.354Z,80.00
2022-11-07T07:28:55.439Z,112.00
2022-11-07T07:29:55.423Z,128.00
2022-11-07T07:31:59.470Z,120.00
2022-11-07T07:32:59.512Z,112.00
2022-11-07T07:33:59.527Z,104.00
2022-11-07T07:34:59.555Z,100.00
2022-11-07T07:35:59.589Z,100.00
2022-11-07T07:36:59.623Z,104.00
2022-11-07T07:37:59.745Z,96.00
2022-11-07T07:38:59.677Z,84.00
2022-11-07T07:39:59.711Z,84.00
2022-11-07T07:40:59.747Z,72.00
2022-11-07T07:41:59.780Z,72.00
2022-11-07T07:42:59.800Z,76.00
2022-11-07T07:43:59.833Z,84.00
2022-11-07T07:44:59.861Z,80.00
2022-11-07T07:45:59.932Z,76.00
2022-11-07T07:46:59.922Z,80.00
2022-11-07T07:47:59.956Z,88.00
2022-11-07T07:48:59.989Z,92.00
2022-11-07T07:50:00.024Z,92.00
2022-11-07T07:51:00.047Z,100.00
2022-11-07T07:52:00.086Z,120.00
2022-11-07T07:53:01.541Z,132.00
2022-11-07T07:54:00.252Z,172.00
2022-11-07T07:55:00.170Z,224.00
2022-11-07T07:56:00.201Z,244.00
2022-11-07T07:57:00.237Z,296.00
2022-11-07T07:58:00.266Z,264.00
2022-11-07T07:59:00.293Z,240.00
2022-11-07T08:00:00.330Z,240.00
2022-11-07T08:01:00.409Z,264.00
2022-11-07T08:02:00.499Z,260.00
2022-11-07T08:03:00.420Z,264.00
2022-11-07T08:04:02.353Z,272.00
2022-11-07T08:05:00.483Z,296.00
2022-11-07T08:06:00.515Z,288.00
2022-11-07T08:07:00.542Z,312.00
2022-11-07T08:08:00.577Z,304.00
2022-11-07T08:09:00.606Z,304.00
2022-11-07T08:10:09.830Z,336.00
2022-11-07T08:11:00.667Z,340.00
2022-11-07T08:12:00.698Z,408.00
2022-11-07T08:13:00.730Z,376.00
2022-11-07T08:14:01.777Z,336.00
2022-11-07T08:15:00.796Z,336.00
2022-11-07T08:16:00.824Z,332.00
2022-11-07T08:17:00.853Z,376.00
2022-11-07T08:18:00.885Z,388.00
2022-11-07T08:19:00.914Z,372.00
2022-11-07T08:20:00.946Z,380.00
2022-11-07T08:21:00.975Z,408.00
2022-11-07T08:22:01.012Z,440.00
2022-11-07T08:23:01.037Z,456.00
2022-11-07T08:24:01.074Z,428.00
2022-11-07T08:25:01.102Z,436.00
2022-11-07T08:26:01.233Z,444.00
2022-11-07T08:27:01.163Z,456.00
2022-11-07T08:28:01.193Z,472.00
2022-11-07T08:29:01.269Z,488.00
2022-11-07T08:30:01.256Z,488.00
2022-11-07T08:31:01.289Z,496.00
2022-11-07T08:32:01.320Z,524.00
2022-11-07T08:33:01.351Z,544.00
2022-11-07T08:34:01.444Z,532.00
2022-11-07T08:35:01.411Z,548.00
2022-11-07T08:36:01.444Z,588.00
2022-11-07T08:37:01.475Z,612.00
2022-11-07T08:38:01.508Z,664.00
2022-11-07T08:39:01.538Z,648.00
2022-11-07T08:40:01.568Z,724.00
2022-11-07T08:41:01.600Z,848.00
2022-11-07T08:42:01.633Z,932.00
2022-11-07T08:43:01.671Z,820.00
2022-11-07T08:44:01.694Z,648.00
2022-11-07T08:45:01.726Z,628.00
2022-11-07T08:46:01.757Z,624.00
2022-11-07T08:47:07.314Z,208.00
2022-11-07T08:48:01.823Z,192.00
2022-11-07T08:49:01.850Z,160.00
2022-11-07T08:50:01.884Z,160.00
2022-11-07T08:51:01.911Z,164.00
2022-11-07T08:52:01.944Z,168.00
2022-11-07T08:53:03.265Z,160.00
2022-11-07T08:54:02.007Z,184.00
2022-11-07T08:55:02.057Z,172.00
2022-11-07T08:56:02.076Z,176.00
2022-11-07T08:57:02.108Z,156.00
2022-11-07T08:58:02.141Z,160.00
2022-11-07T08:59:02.165Z,156.00
2022-11-07T09:00:02.201Z,144.00
2022-11-07T09:01:02.277Z,156.00
2022-11-07T09:02:44.681Z,208.00
2022-11-07T09:04:02.472Z,188.00
2022-11-07T09:05:02.354Z,200.00
2022-11-07T09:06:02.390Z,212.00
2022-11-07T09:07:02.418Z,204.00
2022-11-07T09:08:02.467Z,196.00
2022-11-07T09:09:02.481Z,124.00
2022-11-07T09:10:02.514Z,204.00
2022-11-07T09:11:02.545Z,92.00
2022-11-07T09:12:02.579Z,116.00
2022-11-07T09:13:02.632Z,160.00
2022-11-07T09:14:02.642Z,176.00
2022-11-07T09:15:02.672Z,200.00
2022-11-07T09:16:02.705Z,196.00
2022-11-07T09:17:02.756Z,204.00
2022-11-07T09:18:02.769Z,208.00
2022-11-07T09:19:02.840Z,216.00
2022-11-07T09:20:02.831Z,216.00
2022-11-07T09:21:02.862Z,224.00
2022-11-07T09:22:02.893Z,244.00
2022-11-07T09:23:02.926Z,332.00
2022-11-07T09:24:02.958Z,288.00
2022-11-07T09:25:02.992Z,308.00
2022-11-07T09:26:03.024Z,376.00
2022-11-07T09:27:03.054Z,416.00
2022-11-07T09:28:03.088Z,472.00
2022-11-07T09:29:03.120Z,492.00
2022-11-07T09:30:03.272Z,492.00
2022-11-07T09:31:03.180Z,556.00
2022-11-07T09:32:23.467Z,540.00
2022-11-07T09:33:03.253Z,504.00
2022-11-07T09:34:03.277Z,432.00
2022-11-07T09:35:05.094Z,416.00
2022-11-07T09:36:03.435Z,384.00
2022-11-07T09:37:03.372Z,380.00
2022-11-07T09:38:03.405Z,376.00
2022-11-07T09:39:03.442Z,388.00
2022-11-07T09:40:03.472Z,388.00
2022-11-07T09:41:03.503Z,388.00
2022-11-07T09:42:03.532Z,368.00
2022-11-07T09:43:03.563Z,364.00
2022-11-07T09:44:04.890Z,356.00
2022-11-07T09:45:03.629Z,364.00
2022-11-07T09:46:03.779Z,400.00
2022-11-07T09:47:03.690Z,420.00
2022-11-07T09:48:03.725Z,440.00
2022-11-07T09:49:03.756Z,476.00
2022-11-07T09:50:03.790Z,584.00
2022-11-07T09:51:03.822Z,960.00
2022-11-07T09:52:03.860Z,908.00
2022-11-07T09:53:03.883Z,900.00
2022-11-07T09:54:03.919Z,964.00
2022-11-07T09:55:03.951Z,1136.00
2022-11-07T09:56:03.988Z,1928.00
2022-11-07T09:57:04.017Z,1844.00
2022-11-07T09:58:04.047Z,1352.00
2022-11-07T09:59:04.079Z,2112.00
2022-11-07T10:00:04.113Z,1560.00
2022-11-07T10:01:04.187Z,1624.00
2022-11-07T10:02:04.237Z,3564.00
2022-11-07T10:03:04.208Z,3588.00
2022-11-07T10:04:24.220Z,3408.00
2022-11-07T10:05:04.271Z,7860.00
2022-11-07T10:06:04.304Z,12160.00
2022-11-07T10:07:04.337Z,16064.00
2022-11-07T10:08:04.369Z,16000.00
2022-11-07T10:09:04.402Z,17184.00
2022-11-07T10:10:04.434Z,18400.00
2022-11-07T10:11:04.467Z,19264.00
2022-11-07T10:12:04.500Z,15872.00
2022-11-07T10:13:04.540Z,11256.00
2022-11-07T10:14:04.568Z,15168.00
2022-11-07T10:15:04.601Z,17952.00
2022-11-07T10:16:04.639Z,18240.00
2022-11-07T10:17:04.670Z,20768.00
2022-11-07T10:18:04.704Z,17056.00
2022-11-07T10:19:04.738Z,19104.00
2022-11-07T10:20:04.859Z,16896.00
2022-11-07T10:21:35.890Z,20480.00
2022-11-07T10:22:04.847Z,19712.00
2022-11-07T10:23:04.878Z,14976.00
2022-11-07T10:24:04.915Z,12864.00
2022-11-07T10:25:04.963Z,5920.00
2022-11-07T10:26:04.988Z,9776.00
2022-11-07T10:27:05.023Z,4152.00
2022-11-07T10:28:05.061Z,2752.00
2022-11-07T10:29:05.096Z,3104.00
2022-11-07T10:30:05.137Z,4196.00
2022-11-07T10:31:05.177Z,2088.00
2022-11-07T10:32:05.205Z,3460.00
2022-11-07T10:33:05.274Z,3752.00
2022-11-07T10:34:05.303Z,3384.00
2022-11-07T10:35:05.313Z,2956.00
2022-11-07T10:36:05.351Z,4500.00
2022-11-07T10:37:05.391Z,8768.00
2022-11-07T10:38:05.425Z,2964.00
2022-11-07T10:39:05.461Z,3384.00
2022-11-07T10:40:10.953Z,10484.00
2022-11-07T10:41:05.532Z,8648.00
2022-11-07T10:42:05.572Z,9132.00
2022-11-07T10:43:05.607Z,5396.00
2022-11-07T10:44:05.751Z,6748.00
2022-11-07T10:45:05.682Z,5028.00
2022-11-07T10:46:05.722Z,1556.00
2022-11-07T10:47:05.758Z,2576.00
2022-11-07T10:48:05.795Z,2368.00
2022-11-07T10:49:05.829Z,4928.00
2022-11-07T10:50:05.876Z,5380.00
2022-11-07T10:51:05.903Z,8860.00
2022-11-07T10:52:05.943Z,9284.00
2022-11-07T10:53:05.978Z,10144.00
2022-11-07T10:54:06.017Z,11464.00
2022-11-07T10:55:06.051Z,11600.00
2022-11-07T10:56:06.090Z,13504.00
2022-11-07T10:57:06.127Z,14880.00
2022-11-07T10:58:06.171Z,15616.00
2022-11-07T10:59:06.202Z,15520.00
2022-11-07T11:00:06.241Z,13824.00
2022-11-07T11:01:06.429Z,10344.00
2022-11-07T11:02:06.341Z,14048.00
2022-11-07T11:03:06.352Z,14432.00
2022-11-07T11:04:06.388Z,10176.00
2022-11-07T11:05:06.431Z,8396.00
2022-11-07T11:06:06.466Z,6424.00
2022-11-07T11:07:06.499Z,6944.00
2022-11-07T11:08:06.538Z,7188.00
2022-11-07T11:09:06.594Z,12196.00
2022-11-07T11:10:06.614Z,13664.00
2022-11-07T11:11:06.708Z,13952.00
2022-11-07T11:12:06.687Z,14880.00
2022-11-07T11:13:06.730Z,16640.00
2022-11-07T11:14:06.771Z,17312.00
2022-11-07T11:15:06.802Z,16352.00
2022-11-07T11:16:06.899Z,17632.00
2022-11-07T11:17:06.973Z,20288.00
2022-11-07T11:18:06.936Z,19808.00
2022-11-07T11:19:06.972Z,18816.00
2022-11-07T11:20:06.993Z,13312.00
2022-11-07T11:21:07.032Z,9572.00
2022-11-07T11:22:09.635Z,8600.00
2022-11-07T11:23:07.111Z,10792.00
2022-11-07T11:24:07.149Z,14432.00
2022-11-07T11:25:07.188Z,16896.00
2022-11-07T11:26:07.227Z,16768.00
2022-11-07T11:27:07.266Z,19136.00
2022-11-07T11:28:07.304Z,18560.00
2022-11-07T11:29:07.351Z,18432.00
2022-11-07T11:30:07.383Z,9512.00
2022-11-07T11:31:07.422Z,4784.00
2022-11-07T11:32:07.462Z,8336.00
2022-11-07T11:33:07.510Z,2964.00
2022-11-07T11:34:07.541Z,7236.00
2022-11-07T11:35:07.585Z,5416.00
2022-11-07T11:36:07.622Z,10296.00
2022-11-07T11:37:07.661Z,9736.00
2022-11-07T11:38:07.758Z,6640.00
2022-11-07T11:39:07.739Z,14592.00
2022-11-07T11:40:07.778Z,13120.00
2022-11-07T11:41:10.794Z,6320.00
2022-11-07T11:42:07.855Z,2204.00
2022-11-07T11:43:07.895Z,4948.00
2022-11-07T11:44:07.936Z,4964.00
2022-11-07T11:45:07.975Z,4908.00
2022-11-07T11:46:08.014Z,8288.00
2022-11-07T11:47:08.056Z,9776.00
2022-11-07T11:48:08.092Z,7276.00
2022-11-07T11:49:08.131Z,6952.00
2022-11-07T11:50:08.170Z,4956.00
2022-11-07T11:51:08.209Z,3984.00
2022-11-07T11:52:08.248Z,2392.00
2022-11-07T11:53:08.287Z,3244.00
2022-11-07T11:54:08.325Z,3108.00
2022-11-07T11:55:08.364Z,4848.00
2022-11-07T11:56:08.403Z,4320.00
2022-11-07T11:57:08.449Z,4336.00
2022-11-07T11:58:08.480Z,4288.00
2022-11-07T11:59:08.520Z,3204.00
2022-11-07T12:00:08.556Z,3192.00
2022-11-07T12:01:08.596Z,2940.00
2022-11-07T12:02:08.668Z,2696.00
2022-11-07T12:03:08.673Z,1796.00
2022-11-07T12:04:08.708Z,3384.00
2022-11-07T12:05:08.749Z,3616.00
2022-11-07T12:06:08.785Z,5052.00
2022-11-07T12:07:08.839Z,5012.00
2022-11-07T12:08:08.861Z,5228.00
2022-11-07T12:09:10.546Z,5160.00
2022-11-07T12:10:08.940Z,4832.00
2022-11-07T12:11:08.975Z,3648.00
2022-11-07T12:12:09.013Z,2508.00
2022-11-07T12:13:09.062Z,3128.00
2022-11-07T12:14:09.087Z,3904.00
2022-11-07T12:15:09.128Z,4260.00
2022-11-07T12:16:09.163Z,4784.00
2022-11-07T12:17:09.200Z,1436.00
2022-11-07T12:18:09.238Z,1204.00
2022-11-07T12:19:09.281Z,2000.00
2022-11-07T12:20:09.311Z,2836.00
2022-11-07T12:21:09.351Z,3036.00
2022-11-07T12:22:09.389Z,1540.00
2022-11-07T12:23:09.430Z,1192.00
2022-11-07T12:24:09.462Z,1224.00
2022-11-07T12:25:16.711Z,1912.00
2022-11-07T12:27:02.484Z,2288.00
2022-11-07T12:28:02.517Z,7364.00
2022-11-07T12:30:06.632Z,1848.00
2022-11-07T12:31:06.631Z,7832.00
2022-11-07T12:33:10.731Z,9196.00
2022-11-07T12:34:10.737Z,6712.00
2022-11-07T12:36:14.777Z,6104.00
2022-11-07T12:37:14.800Z,4836.00
2022-11-07T12:39:07.975Z,7444.00
2022-11-07T12:40:08.004Z,5560.00
2022-11-07T12:42:12.209Z,7888.00
2022-11-07T12:43:12.136Z,3988.00
2022-11-07T12:45:16.249Z,5824.00
2022-11-07T12:46:16.233Z,4064.00
2022-11-07T12:48:13.264Z,2668.00
2022-11-07T12:49:09.440Z,3256.00
2022-11-07T12:51:02.643Z,2792.00
2022-11-07T12:52:02.689Z,2480.00
2022-11-07T12:54:06.748Z,1096.00
2022-11-07T12:55:06.729Z,900.00
2022-11-07T12:56:59.706Z,420.00
2022-11-07T12:57:59.746Z,372.00
2022-11-07T12:59:53.079Z,468.00
2022-11-07T13:00:52.967Z,452.00
2022-11-07T13:02:56.980Z,388.00
2022-11-07T13:03:57.015Z,376.00
2022-11-07T13:05:49.995Z,296.00
2022-11-07T13:06:50.027Z,232.00
2022-11-07T13:08:43.087Z,160.00
2022-11-07T13:09:43.081Z,140.00
2022-11-07T13:11:47.144Z,100.00
2022-11-07T13:12:47.182Z,92.00
2022-11-07T13:14:51.423Z,108.00
2022-11-07T13:16:14.439Z,108.00
2022-11-07T13:17:55.325Z,108.00
2022-11-07T13:18:55.359Z,104.00
2022-11-07T13:20:59.508Z,100.00
2022-11-07T13:21:59.466Z,100.00
2022-11-07T13:24:03.521Z,104.00
2022-11-07T13:25:06.773Z,120.00
2022-11-07T13:26:56.541Z,112.00
2022-11-07T13:27:56.570Z,100.00
2022-11-07T13:29:49.730Z,88.00
2022-11-07T13:30:49.762Z,76.00
2022-11-07T13:32:53.846Z,68.00
2022-11-07T13:33:53.871Z,60.00
2022-11-07T13:35:57.928Z,60.00
2022-11-07T13:36:57.958Z,52.00
2022-11-07T13:39:02.017Z,60.00
2022-11-07T13:40:02.041Z,60.00
2022-11-07T13:41:55.213Z,68.00
2022-11-07T13:42:55.271Z,84.00
2022-11-07T13:44:59.301Z,104.00
2022-11-07T13:45:59.331Z,112.00
2022-11-07T13:47:52.534Z,128.00
2022-11-07T13:48:52.521Z,136.00
2022-11-07T13:50:56.623Z,136.00
2022-11-07T13:51:56.616Z,116.00
2022-11-07T13:54:00.670Z,104.00
2022-11-07T13:55:00.700Z,96.00
2022-11-07T13:56:53.684Z,96.00
2022-11-07T13:57:53.710Z,84.00
2022-11-07T13:59:57.808Z,92.00
2022-11-07T14:00:57.906Z,100.00
2022-11-07T14:03:01.893Z,76.00
2022-11-07T14:04:01.886Z,72.00
2022-11-07T14:05:55.053Z,68.00
2022-11-07T14:06:55.085Z,72.00
2022-11-07T14:08:59.171Z,68.00
2022-11-07T14:09:59.169Z,68.00
2022-11-07T14:12:03.216Z,72.00
2022-11-07T14:13:03.244Z,76.00
2022-11-07T14:15:07.353Z,80.00
2022-11-07T14:16:07.369Z,76.00
2022-11-07T14:18:00.506Z,80.00
2022-11-07T14:19:00.534Z,84.00
2022-11-07T14:21:04.638Z,96.00
2022-11-07T14:22:04.652Z,88.00
2022-11-07T14:23:57.862Z,84.00
2022-11-07T14:24:57.851Z,84.00
2022-11-07T14:26:50.840Z,76.00
2022-11-07T14:27:50.867Z,80.00
2022-11-07T14:29:54.933Z,68.00
2022-11-07T14:30:54.964Z,72.00
2022-11-07T14:32:59.066Z,64.00
2022-11-07T14:33:59.063Z,60.00
2022-11-07T14:36:03.135Z,60.00
2022-11-07T14:37:03.162Z,60.00
2022-11-07T14:38:56.333Z,60.00
2022-11-07T14:39:56.361Z,52.00
2022-11-07T14:42:01.437Z,68.00
2022-11-07T14:43:01.527Z,56.00
2022-11-07T14:45:05.530Z,56.00
2022-11-07T14:46:12.462Z,56.00
2022-11-07T14:47:58.760Z,60.00
2022-11-07T14:48:58.754Z,64.00
2022-11-07T14:51:02.806Z,76.00
2022-11-07T14:52:02.907Z,72.00
2022-11-07T14:53:55.996Z,52.00
2022-11-07T14:54:56.025Z,40.00
2022-11-07T14:56:49.010Z,32.00
2022-11-07T14:57:49.035Z,32.00
2022-11-07T14:59:42.200Z,32.00
2022-11-07T15:00:42.230Z,28.00
2022-11-07T15:02:35.498Z,28.00
2022-11-07T15:03:35.426Z,24.00
2022-11-07T15:05:39.524Z,20.00
2022-11-07T15:06:39.528Z,20.00
2022-11-07T15:08:32.727Z,16.00
2022-11-07T15:09:32.716Z,12.00
2022-11-07T15:11:25.917Z,8.00
2022-11-07T15:12:25.916Z,8.00
2022-11-07T15:14:19.136Z,4.00
2022-11-07T15:15:19.122Z,4.00
2022-11-07T15:17:12.109Z,4.00
2022-11-07T15:18:12.125Z,8.00
2022-11-07T15:20:05.363Z,8.00
2022-11-07T15:21:05.336Z,4.00
2022-11-07T15:22:58.510Z,8.00
2022-11-07T15:23:58.530Z,4.00
2022-11-07T15:25:51.733Z,4.00
2022-11-07T15:26:51.723Z,4.00
2022-11-07T15:28:44.893Z,4.00
2022-11-07T15:29:44.918Z,4.00
2022-11-07T15:31:48.982Z,0.00
2022-11-07T15:32:49.006Z,4.00
2022-11-07T15:35:00.833Z,0.00
2022-11-07T15:35:44.879Z,0.00
2022-11-07T15:37:46.330Z,0.00
2022-11-07T15:38:46.318Z,0.00
2022-11-07T15:40:50.392Z,0.00
2022-11-07T15:41:50.414Z,0.00
2022-11-07T15:43:43.617Z,0.00
2022-11-07T15:44:43.610Z,0.00
2022-11-07T15:46:36.644Z,0.00
2022-11-07T15:47:36.634Z,0.00
2022-11-07T15:49:40.704Z,0.00
2022-11-07T15:50:40.732Z,0.00
2022-11-07T15:52:33.938Z,0.00
2022-11-07T15:53:33.928Z,0.00
2022-11-07T15:55:27.101Z,0.00
2022-11-07T15:56:27.129Z,0.00
2022-11-07T15:58:20.331Z,0.00
2022-11-07T15:59:20.310Z,0.00
2022-11-07T16:01:13.582Z,0.00
2022-11-07T16:02:13.670Z,0.00
2022-11-07T16:04:06.736Z,0.00
2022-11-07T16:05:06.707Z,0.00
2022-11-07T16:06:59.706Z,0.00
2022-11-07T16:07:59.725Z,0.00
2022-11-07T16:09:52.931Z,0.00
2022-11-07T16:10:52.924Z,0.00
2022-11-07T16:12:46.124Z,0.00
2022-11-07T16:13:46.118Z,0.00
2022-11-07T16:15:39.292Z,0.00
2022-11-07T16:16:39.318Z,0.00
2022-11-07T16:18:43.412Z,0.00
2022-11-07T16:19:43.445Z,0.00
2022-11-07T16:21:36.606Z,0.00
2022-11-07T16:22:36.635Z,0.00
2022-11-07T16:24:40.700Z,0.00
2022-11-07T16:25:40.724Z,0.00
2022-11-07T16:27:33.907Z,0.00
2022-11-07T16:28:33.932Z,0.00
2022-11-07T16:30:27.098Z,0.00
2022-11-07T16:31:27.126Z,0.00
2022-11-07T16:33:21.338Z,0.00
2022-11-07T16:34:21.331Z,0.00
2022-11-07T16:36:25.403Z,0.00
2022-11-07T16:37:25.427Z,0.00
2022-11-07T16:39:18.634Z,0.00